createdAt,value
2018-11-06T00:01:44.825Z,7.65
2018-11-06T00:04:12.350Z,7.64
2018-11-06T00:09:38.879Z,7.62
2018-11-06T00:12:06.564Z,7.61
2018-11-06T00:14:34.321Z,7.61
2018-11-06T00:17:01.779Z,7.61
2018-11-06T00:19:29.552Z,7.62
2018-11-06T00:21:57.312Z,7.63
2018-11-06T00:24:24.812Z,7.64
2018-11-06T00:26:52.585Z,7.65
2018-11-06T00:29:20.607Z,7.67
2018-11-06T00:31:48.150Z,7.64
2018-11-06T00:34:15.833Z,7.64
2018-11-06T00:36:43.584Z,7.65
2018-11-06T00:39:11.020Z,7.63
2018-11-06T00:41:39.266Z,7.61
2018-11-06T00:44:07.512Z,7.63
2018-11-06T00:46:34.976Z,7.67
2018-11-06T00:49:02.720Z,7.66
2018-11-06T00:51:30.803Z,7.68
2018-11-06T00:53:58.259Z,7.68
2018-11-06T00:56:26.055Z,7.69
2018-11-06T00:58:54.252Z,7.67
2018-11-06T01:01:21.753Z,7.67
2018-11-06T01:03:54.153Z,7.67
2018-11-06T01:06:22.379Z,7.37
2018-11-06T01:08:49.844Z,7.71
2018-11-06T01:11:17.411Z,7.73
2018-11-06T01:13:45.592Z,7.74
2018-11-06T01:16:13.540Z,7.73
2018-11-06T01:18:41.146Z,7.74
2018-11-06T01:21:08.908Z,7.74
2018-11-06T01:23:36.522Z,7.72
2018-11-06T01:26:04.438Z,7.70
2018-11-06T01:28:32.061Z,7.68
2018-11-06T01:30:59.540Z,7.70
2018-11-06T01:33:27.424Z,7.75
2018-11-06T01:35:55.122Z,7.76
2018-11-06T01:38:22.733Z,7.76
2018-11-06T01:40:50.400Z,7.76
2018-11-06T01:43:18.203Z,7.77
2018-11-06T01:45:45.723Z,7.77
2018-11-06T01:48:13.391Z,7.78
2018-11-06T01:50:41.156Z,7.81
2018-11-06T01:53:08.616Z,7.83
2018-11-06T01:55:36.221Z,7.84
2018-11-06T01:58:04.165Z,7.84
2018-11-06T02:00:31.686Z,7.83
2018-11-06T02:02:59.366Z,7.84
2018-11-06T02:05:27.166Z,7.84
2018-11-06T02:07:54.695Z,7.87
2018-11-06T02:10:22.645Z,7.87
2018-11-06T02:12:50.745Z,7.88
2018-11-06T02:15:18.223Z,7.87
2018-11-06T02:17:45.967Z,7.87
2018-11-06T02:20:14.428Z,7.87
2018-11-06T02:22:42.897Z,7.86
2018-11-06T02:25:10.764Z,7.86
2018-11-06T02:27:38.574Z,7.85
2018-11-06T02:30:07.791Z,7.84
2018-11-06T02:32:35.710Z,7.85
2018-11-06T02:35:03.699Z,7.86
2018-11-06T02:37:31.223Z,7.86
2018-11-06T02:39:59.053Z,7.86
2018-11-06T02:42:27.021Z,7.87
2018-11-06T02:44:54.496Z,7.87
2018-11-06T02:47:22.211Z,7.89
2018-11-06T02:49:49.844Z,7.88
2018-11-06T02:52:17.374Z,7.88
2018-11-06T02:54:45.239Z,7.89
2018-11-06T02:57:13.000Z,7.91
2018-11-06T02:59:40.505Z,7.92
2018-11-06T03:02:08.164Z,7.92
2018-11-06T03:04:35.824Z,7.94
2018-11-06T03:07:03.313Z,7.96
2018-11-06T03:09:30.956Z,7.96
2018-11-06T03:11:58.613Z,7.97
2018-11-06T03:14:26.092Z,7.97
2018-11-06T03:16:53.876Z,7.99
2018-11-06T03:19:28.123Z,8.00
2018-11-06T03:21:55.777Z,8.00
2018-11-06T03:24:23.253Z,8.01
2018-11-06T03:26:51.121Z,8.04
2018-11-06T03:29:18.744Z,8.05
2018-11-06T03:31:46.363Z,8.05
2018-11-06T03:34:14.372Z,8.05
2018-11-06T03:36:42.171Z,8.05
2018-11-06T03:39:10.182Z,8.05
2018-11-06T03:41:38.317Z,8.06
2018-11-06T03:44:06.323Z,8.06
2018-11-06T03:46:33.835Z,8.06
2018-11-06T03:49:01.605Z,8.07
2018-11-06T03:51:29.338Z,8.10
2018-11-06T03:53:56.849Z,8.11
2018-11-06T03:56:24.473Z,8.11
2018-11-06T03:58:52.318Z,8.11
2018-11-06T04:01:19.796Z,8.13
2018-11-06T04:03:47.426Z,8.15
2018-11-06T04:06:15.356Z,8.16
2018-11-06T04:08:42.857Z,8.15
2018-11-06T04:11:10.660Z,8.18
2018-11-06T04:13:38.184Z,8.16
2018-11-06T04:16:05.662Z,8.18
2018-11-06T04:18:33.544Z,8.21
2018-11-06T04:21:00.942Z,8.24
2018-11-06T04:23:28.491Z,8.26
2018-11-06T04:25:56.160Z,8.28
2018-11-06T04:28:23.962Z,8.28
2018-11-06T04:30:51.414Z,8.28
2018-11-06T04:33:19.229Z,8.26
2018-11-06T04:35:46.931Z,8.26
2018-11-06T04:38:14.382Z,8.24
2018-11-06T04:40:42.202Z,8.24
2018-11-06T04:43:09.709Z,8.26
2018-11-06T04:45:37.613Z,8.27
2018-11-06T04:48:05.819Z,8.30
2018-11-06T04:50:33.646Z,8.31
2018-11-06T04:53:01.124Z,8.31
2018-11-06T04:55:29.108Z,8.31
2018-11-06T04:57:56.815Z,8.33
2018-11-06T05:00:24.337Z,8.33
2018-11-06T05:02:52.110Z,8.33
2018-11-06T05:05:19.655Z,8.34
2018-11-06T05:07:47.158Z,8.34
2018-11-06T05:10:15.382Z,8.34
2018-11-06T05:12:43.300Z,8.35
2018-11-06T05:15:12.279Z,8.38
2018-11-06T05:17:39.865Z,8.40
2018-11-06T05:20:09.330Z,8.41
2018-11-06T05:22:37.093Z,8.42
2018-11-06T05:25:04.836Z,8.42
2018-11-06T05:27:32.556Z,8.42
2018-11-06T05:30:00.057Z,8.44
2018-11-06T05:32:27.764Z,8.42
2018-11-06T05:34:55.634Z,8.42
2018-11-06T05:37:23.038Z,8.43
2018-11-06T05:40:02.405Z,8.43
2018-11-06T05:42:29.898Z,8.44
2018-11-06T05:44:57.377Z,8.43
2018-11-06T05:47:25.112Z,8.43
2018-11-06T05:49:52.590Z,8.43
2018-11-06T05:52:20.470Z,8.43
2018-11-06T05:54:48.434Z,8.38
2018-11-06T05:57:16.115Z,8.47
2018-11-06T05:59:43.921Z,8.50
2018-11-06T06:02:11.996Z,8.50
2018-11-06T06:04:39.462Z,8.53
2018-11-06T06:07:07.275Z,8.55
2018-11-06T06:09:35.674Z,8.57
2018-11-06T06:12:03.114Z,8.60
2018-11-06T06:14:30.613Z,8.59
2018-11-06T06:16:59.028Z,8.61
2018-11-06T06:19:26.455Z,8.61
2018-11-06T06:21:53.899Z,8.61
2018-11-06T06:24:21.499Z,8.60
2018-11-06T06:26:49.002Z,8.58
2018-11-06T06:29:16.522Z,8.60
2018-11-06T06:31:44.878Z,8.61
2018-11-06T06:34:12.347Z,8.63
2018-11-06T06:36:40.515Z,8.62
2018-11-06T06:39:09.701Z,8.62
2018-11-06T06:41:37.640Z,8.62
2018-11-06T06:44:05.767Z,8.61
2018-11-06T06:46:33.941Z,8.63
2018-11-06T06:49:01.421Z,8.64
2018-11-06T06:51:28.858Z,8.65
2018-11-06T06:54:28.098Z,8.67
2018-11-06T06:56:55.341Z,8.65
2018-11-06T06:59:22.994Z,8.67
2018-11-06T07:01:51.222Z,8.66
2018-11-06T07:04:19.302Z,8.66
2018-11-06T07:06:47.329Z,8.66
2018-11-06T07:09:15.465Z,8.67
2018-11-06T07:11:43.382Z,8.69
2018-11-06T07:14:10.832Z,8.70
2018-11-06T07:16:38.756Z,8.62
2018-11-06T07:19:06.252Z,8.69
2018-11-06T07:24:32.788Z,8.71
2018-11-06T07:27:00.286Z,8.71
2018-11-06T07:29:28.302Z,8.72
2018-11-06T07:31:56.034Z,8.73
2018-11-06T07:34:23.869Z,8.75
2018-11-06T07:36:51.602Z,8.75
2018-11-06T07:39:19.337Z,8.77
2018-11-06T07:41:46.938Z,8.79
2018-11-06T07:44:14.637Z,8.80
2018-11-06T07:46:42.485Z,8.80
2018-11-06T07:49:09.968Z,8.82
2018-11-06T07:51:37.880Z,8.83
2018-11-06T07:54:05.496Z,8.85
2018-11-06T07:56:32.975Z,8.84
2018-11-06T07:59:00.877Z,8.85
2018-11-06T08:01:28.419Z,8.83
2018-11-06T08:03:55.870Z,8.80
2018-11-06T08:06:23.614Z,8.80
2018-11-06T08:08:51.285Z,8.82
2018-11-06T08:11:18.791Z,8.83
2018-11-06T08:13:46.551Z,8.82
2018-11-06T08:16:14.494Z,8.79
2018-11-06T08:18:41.964Z,8.82
2018-11-06T08:21:09.856Z,8.80
2018-11-06T08:23:37.630Z,8.80
2018-11-06T08:26:05.627Z,8.81
2018-11-06T08:28:33.449Z,8.83
2018-11-06T08:31:01.611Z,8.82
2018-11-06T08:33:29.054Z,8.82
2018-11-06T08:35:56.726Z,8.82
2018-11-06T08:38:24.491Z,8.82
2018-11-06T08:40:52.189Z,8.82
2018-11-06T08:43:19.769Z,8.82
2018-11-06T08:45:47.273Z,8.85
2018-11-06T08:48:14.917Z,8.83
2018-11-06T08:50:42.706Z,8.83
2018-11-06T08:53:10.358Z,8.83
2018-11-06T08:55:37.930Z,8.82
2018-11-06T08:58:05.709Z,8.83
2018-11-06T09:00:33.441Z,8.83
2018-11-06T09:03:00.909Z,8.81
2018-11-06T09:05:28.721Z,8.81
2018-11-06T09:07:56.315Z,8.81
2018-11-06T09:10:23.847Z,8.84
2018-11-06T09:12:51.622Z,8.80
2018-11-06T09:15:19.141Z,8.89
2018-11-06T09:17:46.607Z,8.89
2018-11-06T09:20:15.390Z,8.91
2018-11-06T09:22:43.095Z,8.61
2018-11-06T09:25:12.000Z,8.94
2018-11-06T09:27:40.431Z,8.96
2018-11-06T09:30:09.898Z,8.99
2018-11-06T09:32:37.392Z,8.99
2018-11-06T09:35:05.954Z,8.99
2018-11-06T09:37:33.871Z,9.01
2018-11-06T09:40:01.381Z,8.99
2018-11-06T09:42:29.172Z,9.00
2018-11-06T09:44:56.976Z,8.98
2018-11-06T09:47:24.437Z,8.99
2018-11-06T09:49:52.482Z,9.00
2018-11-06T09:52:20.321Z,9.00
2018-11-06T09:54:48.047Z,8.99
2018-11-06T09:57:15.778Z,9.02
2018-11-06T09:59:43.504Z,9.02
2018-11-06T10:02:10.942Z,9.04
2018-11-06T10:04:39.069Z,9.05
2018-11-06T10:07:06.880Z,9.05
2018-11-06T10:09:34.064Z,9.03
2018-11-06T10:12:01.773Z,9.01
2018-11-06T10:14:29.682Z,9.00
2018-11-06T10:16:57.111Z,8.99
2018-11-06T10:19:25.070Z,8.97
2018-11-06T10:21:52.550Z,8.97
2018-11-06T10:24:19.990Z,8.93
2018-11-06T10:26:47.730Z,8.90
2018-11-06T10:29:15.281Z,8.88
2018-11-06T10:31:42.769Z,8.87
2018-11-06T10:34:10.717Z,8.84
2018-11-06T10:36:38.463Z,8.82
2018-11-06T10:39:09.068Z,8.80
2018-11-06T10:41:37.156Z,8.82
2018-11-06T10:44:05.189Z,8.82
2018-11-06T10:46:32.669Z,8.82
2018-11-06T10:49:00.702Z,8.82
2018-11-06T10:51:28.458Z,8.82
2018-11-06T10:53:55.944Z,8.81
2018-11-06T10:56:23.681Z,8.80
2018-11-06T10:58:51.271Z,8.82
2018-11-06T11:01:24.344Z,8.85
2018-11-06T11:03:57.748Z,8.86
2018-11-06T11:06:25.431Z,8.84
2018-11-06T11:08:52.894Z,8.83
2018-11-06T11:11:20.734Z,8.83
2018-11-06T11:13:48.262Z,8.83
2018-11-06T11:16:15.728Z,8.81
2018-11-06T11:18:43.385Z,8.80
2018-11-06T11:21:11.150Z,8.82
2018-11-06T11:23:38.833Z,8.84
2018-11-06T11:26:06.720Z,8.85
2018-11-06T11:28:34.322Z,8.84
2018-11-06T11:31:02.378Z,8.84
2018-11-06T11:33:30.645Z,8.80
2018-11-06T11:35:58.347Z,8.79
2018-11-06T11:38:25.874Z,8.77
2018-11-06T11:40:54.072Z,8.74
2018-11-06T11:43:22.451Z,8.74
2018-11-06T11:45:50.016Z,8.75
2018-11-06T11:48:18.134Z,8.76
2018-11-06T11:50:45.877Z,8.79
2018-11-06T11:53:13.340Z,8.80
2018-11-06T11:55:41.112Z,8.78
2018-11-06T11:58:08.889Z,8.79
2018-11-06T12:00:38.093Z,8.82
2018-11-06T12:03:06.933Z,8.80
2018-11-06T12:05:35.102Z,8.82
2018-11-06T12:08:02.596Z,8.82
2018-11-06T12:10:30.761Z,8.80
2018-11-06T12:12:58.604Z,8.78
2018-11-06T12:15:26.113Z,8.79
2018-11-06T12:17:54.102Z,8.82
2018-11-06T12:20:21.842Z,8.82
2018-11-06T12:22:49.335Z,8.82
2018-11-06T12:25:17.383Z,8.80
2018-11-06T12:27:44.846Z,8.77
2018-11-06T12:30:13.855Z,8.76
2018-11-06T12:32:41.973Z,8.75
2018-11-06T12:35:10.731Z,8.73
2018-11-06T12:37:38.584Z,8.72
2018-11-06T12:40:07.335Z,8.71
2018-11-06T12:42:35.122Z,8.68
2018-11-06T12:45:02.696Z,8.69
2018-11-06T12:47:30.659Z,8.70
2018-11-06T12:49:58.425Z,8.72
2018-11-06T12:52:25.996Z,8.74
2018-11-06T12:54:53.953Z,8.74
2018-11-06T12:57:21.727Z,8.73
2018-11-06T12:59:49.270Z,8.75
2018-11-06T13:02:17.256Z,8.75
2018-11-06T13:04:45.000Z,8.71
2018-11-06T13:07:12.474Z,8.71
2018-11-06T13:09:40.245Z,8.69
2018-11-06T13:12:07.985Z,8.69
2018-11-06T13:14:35.481Z,8.72
2018-11-06T13:17:03.280Z,8.74
2018-11-06T13:19:31.124Z,8.74
2018-11-06T13:21:58.577Z,8.74
2018-11-06T13:24:26.108Z,8.78
2018-11-06T13:26:53.655Z,8.80
2018-11-06T13:29:21.143Z,8.83
2018-11-06T13:31:48.736Z,8.82
2018-11-06T13:34:16.238Z,8.81
2018-11-06T13:36:43.683Z,8.80
2018-11-06T13:39:12.497Z,8.79
2018-11-06T13:41:40.416Z,8.82
2018-11-06T13:44:08.736Z,8.80
2018-11-06T13:46:36.507Z,8.82
2018-11-06T13:49:04.488Z,8.79
2018-11-06T13:51:32.050Z,8.77
2018-11-06T13:53:59.774Z,8.74
2018-11-06T13:56:27.316Z,8.38
2018-11-06T13:58:54.747Z,8.74
2018-11-06T14:01:22.730Z,8.74
2018-11-06T14:03:50.430Z,8.73
2018-11-06T14:06:17.913Z,8.37
2018-11-06T14:08:45.678Z,8.67
2018-11-06T14:11:13.418Z,8.67
2018-11-06T14:13:40.917Z,8.66
2018-11-06T14:16:08.689Z,8.65
2018-11-06T14:18:36.442Z,8.67
2018-11-06T14:21:04.224Z,8.69
2018-11-06T14:23:32.031Z,8.66
2018-11-06T14:25:59.891Z,8.68
2018-11-06T14:28:27.368Z,8.70
2018-11-06T14:30:55.266Z,8.72
2018-11-06T14:33:23.191Z,8.74
2018-11-06T14:35:50.686Z,8.74
2018-11-06T14:38:18.562Z,8.75
2018-11-06T14:40:46.314Z,8.77
2018-11-06T14:43:13.785Z,8.76
2018-11-06T14:45:41.548Z,8.77
2018-11-06T14:48:09.379Z,8.77
2018-11-06T14:50:36.918Z,8.79
2018-11-06T14:53:05.451Z,8.78
2018-11-06T14:55:33.178Z,8.76
2018-11-06T14:58:00.626Z,8.75
2018-11-06T15:00:28.459Z,8.76
2018-11-06T15:02:56.565Z,8.77
2018-11-06T15:05:24.184Z,8.78
2018-11-06T15:07:52.060Z,8.78
2018-11-06T15:10:19.852Z,8.80
2018-11-06T15:12:47.787Z,8.82
2018-11-06T15:15:16.373Z,8.81
2018-11-06T15:17:44.934Z,8.79
2018-11-06T15:20:14.208Z,8.90
2018-11-06T15:22:42.651Z,8.87
2018-11-06T15:25:11.165Z,8.88
2018-11-06T15:27:38.841Z,8.89
2018-11-06T15:30:08.097Z,8.89
2018-11-06T15:32:35.818Z,8.87
2018-11-06T15:35:03.475Z,8.87
2018-11-06T15:37:31.380Z,8.85
2018-11-06T15:39:58.934Z,8.85
2018-11-06T15:42:26.463Z,8.84
2018-11-06T15:44:54.373Z,8.85
2018-11-06T15:47:21.794Z,8.86
2018-11-06T15:49:49.298Z,8.86
2018-11-06T15:52:16.889Z,8.83
2018-11-06T15:54:44.897Z,8.81
2018-11-06T15:57:12.253Z,8.78
2018-11-06T15:59:40.044Z,8.79
2018-11-06T16:02:07.769Z,8.80
2018-11-06T16:04:35.335Z,8.79
2018-11-06T16:07:03.062Z,8.78
2018-11-06T16:09:30.734Z,8.78
2018-11-06T16:11:58.206Z,8.77
2018-11-06T16:17:00.259Z,8.78
2018-11-06T16:19:27.786Z,8.79
2018-11-06T16:21:55.493Z,8.81
2018-11-06T16:24:23.244Z,8.80
2018-11-06T16:26:50.709Z,8.80
2018-11-06T16:29:18.461Z,8.80
2018-11-06T16:31:46.221Z,8.82
2018-11-06T16:34:13.711Z,8.83
2018-11-06T16:36:41.458Z,8.83
2018-11-06T16:39:10.735Z,8.83
2018-11-06T16:41:38.263Z,8.85
2018-11-06T16:44:06.281Z,8.85
2018-11-06T16:46:33.811Z,8.86
2018-11-06T16:49:01.343Z,8.86
2018-11-06T16:51:29.564Z,8.86
2018-11-06T16:53:57.333Z,8.87
2018-11-06T16:56:24.905Z,8.88
2018-11-06T16:58:52.559Z,8.90
2018-11-06T17:01:20.142Z,8.92
2018-11-06T17:03:47.612Z,8.91
2018-11-06T17:06:50.896Z,8.94
2018-11-06T17:09:19.269Z,8.94
2018-11-06T17:11:46.742Z,8.93
2018-11-06T17:14:14.784Z,8.92
2018-11-06T17:16:42.255Z,8.91
2018-11-06T17:19:09.746Z,8.90
2018-11-06T17:21:37.577Z,8.89
2018-11-06T17:24:05.724Z,8.87
2018-11-06T17:26:33.231Z,8.86
2018-11-06T17:29:01.683Z,8.85
2018-11-06T17:31:29.303Z,8.83
2018-11-06T17:33:56.756Z,8.83
2018-11-06T17:36:24.698Z,8.83
2018-11-06T17:38:52.326Z,8.83
2018-11-06T17:41:19.815Z,8.82
2018-11-06T17:43:47.527Z,8.82
2018-11-06T17:46:15.415Z,8.79
2018-11-06T17:48:42.942Z,8.76
2018-11-06T17:51:10.660Z,8.77
2018-11-06T17:53:38.213Z,8.75
2018-11-06T17:56:05.938Z,8.76
2018-11-06T17:58:33.633Z,8.75
2018-11-06T18:01:01.139Z,8.77
2018-11-06T18:03:28.696Z,8.78
2018-11-06T18:05:56.647Z,8.80
2018-11-06T18:08:24.684Z,8.82
2018-11-06T18:10:52.224Z,8.83
2018-11-06T18:13:19.918Z,8.83
2018-11-06T18:15:47.702Z,8.82
2018-11-06T18:18:15.201Z,8.83
2018-11-06T18:20:42.894Z,8.83
2018-11-06T18:23:10.511Z,8.83
2018-11-06T18:25:38.069Z,8.83
2018-11-06T18:28:06.148Z,8.82
2018-11-06T18:30:33.727Z,8.81
2018-11-06T18:33:01.217Z,8.82
2018-11-06T18:35:28.960Z,8.82
2018-11-06T18:37:56.674Z,8.79
2018-11-06T18:40:24.101Z,8.78
2018-11-06T18:42:51.833Z,8.77
2018-11-06T18:45:19.459Z,8.77
2018-11-06T18:47:47.039Z,8.75
2018-11-06T18:50:16.112Z,8.77
2018-11-06T18:52:44.949Z,8.79
2018-11-06T18:55:12.459Z,8.79
2018-11-06T18:57:40.987Z,8.81
2018-11-06T19:00:12.025Z,8.82
2018-11-06T19:02:39.643Z,8.81
2018-11-06T19:05:07.385Z,8.79
2018-11-06T19:10:38.185Z,8.78
2018-11-06T19:13:05.591Z,8.83
2018-11-06T19:15:33.034Z,8.82
2018-11-06T19:18:00.826Z,8.86
2018-11-06T19:20:28.324Z,8.89
2018-11-06T19:22:55.780Z,8.91
2018-11-06T19:25:23.655Z,8.90
2018-11-06T19:27:51.679Z,8.91
2018-11-06T19:30:19.703Z,8.92
2018-11-06T19:32:47.408Z,8.91
2018-11-06T19:35:14.913Z,8.91
2018-11-06T19:37:42.524Z,8.91
2018-11-06T19:40:11.590Z,8.90
2018-11-06T19:42:39.773Z,8.89
2018-11-06T19:45:08.075Z,8.90
2018-11-06T19:47:35.846Z,8.89
2018-11-06T19:50:03.512Z,8.90
2018-11-06T19:52:30.951Z,8.90
2018-11-06T19:54:58.832Z,8.89
2018-11-06T19:57:26.323Z,8.86
2018-11-06T19:59:53.796Z,8.85
2018-11-06T20:02:21.542Z,8.86
2018-11-06T20:07:49.201Z,8.86
2018-11-06T20:10:17.993Z,8.86
2018-11-06T20:12:46.424Z,8.86
2018-11-06T20:15:14.943Z,8.87
2018-11-06T20:17:42.861Z,8.89
2018-11-06T20:20:13.732Z,8.91
2018-11-06T20:22:41.457Z,8.92
2018-11-06T20:25:09.559Z,8.92
2018-11-06T20:27:37.078Z,8.92
2018-11-06T20:30:06.119Z,8.92
2018-11-06T20:32:33.542Z,8.93
2018-11-06T20:35:00.983Z,8.93
2018-11-06T20:37:28.773Z,8.93
2018-11-06T20:39:56.249Z,8.93
2018-11-06T20:42:23.738Z,8.92
2018-11-06T20:44:51.529Z,8.95
2018-11-06T20:47:19.038Z,8.92
2018-11-06T20:49:46.626Z,8.91
2018-11-06T20:52:14.312Z,8.91
2018-11-06T20:54:41.770Z,8.90
2018-11-06T20:57:09.243Z,8.88
2018-11-06T20:59:36.922Z,8.89
2018-11-06T21:02:05.473Z,8.90
2018-11-06T21:04:32.942Z,8.92
2018-11-06T21:07:00.744Z,8.92
2018-11-06T21:09:28.189Z,8.91
2018-11-06T21:11:55.719Z,8.91
2018-11-06T21:14:23.433Z,8.91
2018-11-06T21:16:50.962Z,8.90
2018-11-06T21:19:18.466Z,8.88
2018-11-06T21:21:46.112Z,8.88
2018-11-06T21:24:13.542Z,8.88
2018-11-06T21:26:41.066Z,8.89
2018-11-06T21:29:08.551Z,8.90
2018-11-06T21:31:35.996Z,8.90
2018-11-06T21:34:03.534Z,8.90
2018-11-06T21:36:31.144Z,8.91
2018-11-06T21:38:58.655Z,8.92
2018-11-06T21:41:26.133Z,8.91
2018-11-06T21:43:53.831Z,8.91
2018-11-06T21:46:21.304Z,8.88
2018-11-06T21:48:48.748Z,8.87
2018-11-06T21:51:16.572Z,8.87
2018-11-06T21:53:44.035Z,8.87
2018-11-06T21:56:11.515Z,8.86
2018-11-06T21:58:39.105Z,8.86
2018-11-06T22:01:06.630Z,8.88
2018-11-06T22:03:34.084Z,8.91
2018-11-06T22:06:01.636Z,8.92
2018-11-06T22:08:29.124Z,8.93
2018-11-06T22:10:56.582Z,8.95
2018-11-06T22:13:24.203Z,8.95
2018-11-06T22:15:51.705Z,8.95
2018-11-06T22:18:19.918Z,8.97
2018-11-06T22:20:47.644Z,8.97
2018-11-06T22:23:15.142Z,8.98
2018-11-06T22:25:42.633Z,8.98
2018-11-06T22:28:10.172Z,8.96
2018-11-06T22:30:37.650Z,8.94
2018-11-06T22:33:05.235Z,8.94
2018-11-06T22:35:33.001Z,8.94
2018-11-06T22:38:00.507Z,8.96
2018-11-06T22:40:27.938Z,8.98
2018-11-06T22:42:55.750Z,8.99
2018-11-06T22:45:23.182Z,9.00
2018-11-06T22:47:50.675Z,9.00
2018-11-06T22:50:18.454Z,9.01
2018-11-06T22:52:46.652Z,9.03
2018-11-06T22:55:14.203Z,9.03
2018-11-06T22:57:41.980Z,9.03
2018-11-06T23:00:16.226Z,9.03
2018-11-06T23:02:44.049Z,9.03
2018-11-06T23:05:11.625Z,9.03
2018-11-06T23:07:44.844Z,9.03
2018-11-06T23:10:12.493Z,9.02
2018-11-06T23:12:40.032Z,9.04
2018-11-06T23:15:07.863Z,9.04
2018-11-06T23:17:35.519Z,9.04
2018-11-06T23:20:03.160Z,9.02
2018-11-06T23:22:30.836Z,9.02
2018-11-06T23:24:58.585Z,9.03
2018-11-06T23:27:26.029Z,9.00
2018-11-06T23:29:53.706Z,8.97
2018-11-06T23:32:21.230Z,8.95
2018-11-06T23:34:48.675Z,8.96
2018-11-06T23:37:16.324Z,8.96
2018-11-06T23:39:43.979Z,8.97
2018-11-06T23:42:11.388Z,8.95
2018-11-06T23:44:39.047Z,8.93
2018-11-06T23:47:06.759Z,8.94
2018-11-06T23:49:34.180Z,8.95
2018-11-06T23:52:01.744Z,8.97
2018-11-06T23:54:29.400Z,8.98
2018-11-06T23:56:56.906Z,9.00
2018-11-06T23:59:24.506Z,9.01
